sensor_id;sensor_type;location;lat;lon;timestamp;temperature;humidity
81800;DHT22;71195;52.528;5.704;2024-01-30T00:00:13;9.60;66.20
81800;DHT22;71195;52.528;5.704;2024-01-30T00:02:42;9.60;66.20
81800;DHT22;71195;52.528;5.704;2024-01-30T00:05:12;9.60;66.20
81800;DHT22;71195;52.528;5.704;2024-01-30T00:07:43;9.60;66.20
81800;DHT22;71195;52.528;5.704;2024-01-30T00:10:13;9.60;66.30
81800;DHT22;71195;52.528;5.704;2024-01-30T00:12:42;9.60;66.30
81800;DHT22;71195;52.528;5.704;2024-01-30T00:15:11;9.50;66.30
81800;DHT22;71195;52.528;5.704;2024-01-30T00:17:41;9.50;66.40
81800;DHT22;71195;52.528;5.704;2024-01-30T00:20:10;9.50;66.40
81800;DHT22;71195;52.528;5.704;2024-01-30T00:22:40;9.60;66.40
81800;DHT22;71195;52.528;5.704;2024-01-30T00:25:11;9.50;66.40
81800;DHT22;71195;52.528;5.704;2024-01-30T00:27:40;9.50;66.40
81800;DHT22;71195;52.528;5.704;2024-01-30T00:30:11;9.50;66.40
81800;DHT22;71195;52.528;5.704;2024-01-30T00:32:40;9.50;66.40
81800;DHT22;71195;52.528;5.704;2024-01-30T00:35:09;9.50;66.40
81800;DHT22;71195;52.528;5.704;2024-01-30T00:37:38;9.50;66.40
81800;DHT22;71195;52.528;5.704;2024-01-30T00:40:11;9.50;66.40
81800;DHT22;71195;52.528;5.704;2024-01-30T00:42:41;9.50;66.40
81800;DHT22;71195;52.528;5.704;2024-01-30T00:45:12;9.50;66.40
81800;DHT22;71195;52.528;5.704;2024-01-30T00:47:42;9.50;66.50
81800;DHT22;71195;52.528;5.704;2024-01-30T00:50:11;9.50;66.60
81800;DHT22;71195;52.528;5.704;2024-01-30T00:52:40;9.50;66.60
81800;DHT22;71195;52.528;5.704;2024-01-30T00:55:13;9.40;66.60
81800;DHT22;71195;52.528;5.704;2024-01-30T00:57:43;9.40;66.70
81800;DHT22;71195;52.528;5.704;2024-01-30T01:00:13;9.40;66.60
81800;DHT22;71195;52.528;5.704;2024-01-30T01:02:43;9.50;66.60
81800;DHT22;71195;52.528;5.704;2024-01-30T01:05:12;9.50;66.60
81800;DHT22;71195;52.528;5.704;2024-01-30T01:07:41;9.50;66.60
81800;DHT22;71195;52.528;5.704;2024-01-30T01:10:16;9.50;66.60
81800;DHT22;71195;52.528;5.704;2024-01-30T01:12:45;9.50;66.70
81800;DHT22;71195;52.528;5.704;2024-01-30T01:15:15;9.50;66.60
81800;DHT22;71195;52.528;5.704;2024-01-30T01:17:44;9.50;66.60
81800;DHT22;71195;52.528;5.704;2024-01-30T01:20:13;9.50;66.60
81800;DHT22;71195;52.528;5.704;2024-01-30T01:22:42;9.50;66.60
81800;DHT22;71195;52.528;5.704;2024-01-30T01:25:11;9.50;66.60
81800;DHT22;71195;52.528;5.704;2024-01-30T01:27:43;9.60;66.60
81800;DHT22;71195;52.528;5.704;2024-01-30T01:30:17;9.60;66.70
81800;DHT22;71195;52.528;5.704;2024-01-30T01:32:48;9.60;66.60
81800;DHT22;71195;52.528;5.704;2024-01-30T01:35:21;9.60;66.50
81800;DHT22;71195;52.528;5.704;2024-01-30T01:37:51;9.60;66.50
81800;DHT22;71195;52.528;5.704;2024-01-30T01:40:22;9.70;66.50
81800;DHT22;71195;52.528;5.704;2024-01-30T01:42:55;9.70;66.60
81800;DHT22;71195;52.528;5.704;2024-01-30T01:45:24;9.70;66.60
81800;DHT22;71195;52.528;5.704;2024-01-30T01:47:53;9.70;66.60
81800;DHT22;71195;52.528;5.704;2024-01-30T01:50:23;9.70;66.60
81800;DHT22;71195;52.528;5.704;2024-01-30T01:52:53;9.70;66.60
81800;DHT22;71195;52.528;5.704;2024-01-30T01:55:23;9.70;66.60
81800;DHT22;71195;52.528;5.704;2024-01-30T01:57:57;9.70;66.60
81800;DHT22;71195;52.528;5.704;2024-01-30T02:00:26;9.70;66.60
81800;DHT22;71195;52.528;5.704;2024-01-30T02:02:55;9.80;66.70
81800;DHT22;71195;52.528;5.704;2024-01-30T02:05:25;9.70;66.60
81800;DHT22;71195;52.528;5.704;2024-01-30T02:07:55;9.70;66.70
81800;DHT22;71195;52.528;5.704;2024-01-30T02:10:24;9.70;66.70
81800;DHT22;71195;52.528;5.704;2024-01-30T02:12:56;9.80;66.70
81800;DHT22;71195;52.528;5.704;2024-01-30T02:15:25;9.80;66.70
81800;DHT22;71195;52.528;5.704;2024-01-30T02:17:55;9.80;66.70
81800;DHT22;71195;52.528;5.704;2024-01-30T02:20:25;9.70;66.70
81800;DHT22;71195;52.528;5.704;2024-01-30T02:23:01;9.70;66.80
81800;DHT22;71195;52.528;5.704;2024-01-30T02:25:32;9.70;66.90
81800;DHT22;71195;52.528;5.704;2024-01-30T02:28:02;9.70;66.80
81800;DHT22;71195;52.528;5.704;2024-01-30T02:30:31;9.70;66.80
81800;DHT22;71195;52.528;5.704;2024-01-30T02:33:00;9.70;66.80
81800;DHT22;71195;52.528;5.704;2024-01-30T02:35:29;9.70;66.90
81800;DHT22;71195;52.528;5.704;2024-01-30T02:38:02;9.70;66.90
81800;DHT22;71195;52.528;5.704;2024-01-30T02:40:31;9.70;66.80
81800;DHT22;71195;52.528;5.704;2024-01-30T02:43:02;9.70;66.90
81800;DHT22;71195;52.528;5.704;2024-01-30T02:45:31;9.70;66.90
81800;DHT22;71195;52.528;5.704;2024-01-30T02:48:00;9.60;66.90
81800;DHT22;71195;52.528;5.704;2024-01-30T02:50:29;9.70;66.90
81800;DHT22;71195;52.528;5.704;2024-01-30T02:52:58;9.60;66.90
81800;DHT22;71195;52.528;5.704;2024-01-30T02:55:30;9.60;67.00
81800;DHT22;71195;52.528;5.704;2024-01-30T02:57:59;9.60;67.00
81800;DHT22;71195;52.528;5.704;2024-01-30T03:00:28;9.60;67.00
81800;DHT22;71195;52.528;5.704;2024-01-30T03:02:57;9.60;67.00
81800;DHT22;71195;52.528;5.704;2024-01-30T03:05:27;9.60;67.00
81800;DHT22;71195;52.528;5.704;2024-01-30T03:07:56;9.60;67.00
81800;DHT22;71195;52.528;5.704;2024-01-30T03:10:26;9.60;67.10
81800;DHT22;71195;52.528;5.704;2024-01-30T03:12:57;9.50;67.10
81800;DHT22;71195;52.528;5.704;2024-01-30T03:15:26;9.60;67.10
81800;DHT22;71195;52.528;5.704;2024-01-30T03:17:56;9.50;67.00
81800;DHT22;71195;52.528;5.704;2024-01-30T03:20:25;9.60;67.00
81800;DHT22;71195;52.528;5.704;2024-01-30T03:22:55;9.50;67.10
81800;DHT22;71195;52.528;5.704;2024-01-30T03:25:24;9.50;67.00
81800;DHT22;71195;52.528;5.704;2024-01-30T03:27:53;9.50;67.10
81800;DHT22;71195;52.528;5.704;2024-01-30T03:30:25;9.50;67.00
81800;DHT22;71195;52.528;5.704;2024-01-30T03:32:54;9.50;67.10
81800;DHT22;71195;52.528;5.704;2024-01-30T03:35:23;9.50;67.00
81800;DHT22;71195;52.528;5.704;2024-01-30T03:37:52;9.50;67.00
81800;DHT22;71195;52.528;5.704;2024-01-30T03:40:21;9.50;67.10
81800;DHT22;71195;52.528;5.704;2024-01-30T03:42:50;9.50;67.10
81800;DHT22;71195;52.528;5.704;2024-01-30T03:45:20;9.50;67.10
81800;DHT22;71195;52.528;5.704;2024-01-30T03:47:51;9.40;67.10
81800;DHT22;71195;52.528;5.704;2024-01-30T03:50:20;9.40;67.10
81800;DHT22;71195;52.528;5.704;2024-01-30T03:52:49;9.40;67.00
81800;DHT22;71195;52.528;5.704;2024-01-30T03:55:19;9.40;67.10
81800;DHT22;71195;52.528;5.704;2024-01-30T03:57:48;9.40;67.10
81800;DHT22;71195;52.528;5.704;2024-01-30T04:00:17;9.40;67.10
81800;DHT22;71195;52.528;5.704;2024-01-30T04:02:46;9.40;67.10
81800;DHT22;71195;52.528;5.704;2024-01-30T04:05:19;9.40;67.00
81800;DHT22;71195;52.528;5.704;2024-01-30T04:07:48;9.40;67.10
81800;DHT22;71195;52.528;5.704;2024-01-30T04:10:18;9.40;67.10
81800;DHT22;71195;52.528;5.704;2024-01-30T04:12:47;9.40;67.10
81800;DHT22;71195;52.528;5.704;2024-01-30T04:15:16;9.40;67.00
81800;DHT22;71195;52.528;5.704;2024-01-30T04:17:45;9.40;67.10
81800;DHT22;71195;52.528;5.704;2024-01-30T04:20:15;9.40;67.10
81800;DHT22;71195;52.528;5.704;2024-01-30T04:22:47;9.40;67.10
81800;DHT22;71195;52.528;5.704;2024-01-30T04:25:16;9.40;67.10
81800;DHT22;71195;52.528;5.704;2024-01-30T04:27:45;9.40;67.10
81800;DHT22;71195;52.528;5.704;2024-01-30T04:30:14;9.40;67.10
81800;DHT22;71195;52.528;5.704;2024-01-30T04:32:44;9.40;67.10
81800;DHT22;71195;52.528;5.704;2024-01-30T04:35:13;9.40;67.00
81800;DHT22;71195;52.528;5.704;2024-01-30T04:37:42;9.50;67.00
81800;DHT22;71195;52.528;5.704;2024-01-30T04:40:14;9.50;67.00
81800;DHT22;71195;52.528;5.704;2024-01-30T04:42:43;9.50;66.90
81800;DHT22;71195;52.528;5.704;2024-01-30T04:45:12;9.50;66.90
81800;DHT22;71195;52.528;5.704;2024-01-30T04:47:41;9.50;66.90
81800;DHT22;71195;52.528;5.704;2024-01-30T04:50:10;9.50;67.00
81800;DHT22;71195;52.528;5.704;2024-01-30T04:52:39;9.50;67.00
81800;DHT22;71195;52.528;5.704;2024-01-30T04:55:08;9.60;66.90
81800;DHT22;71195;52.528;5.704;2024-01-30T04:57:40;9.60;66.90
81800;DHT22;71195;52.528;5.704;2024-01-30T05:00:10;9.60;66.90
81800;DHT22;71195;52.528;5.704;2024-01-30T05:02:39;9.60;66.90
81800;DHT22;71195;52.528;5.704;2024-01-30T05:05:09;9.60;67.00
81800;DHT22;71195;52.528;5.704;2024-01-30T05:07:40;9.60;67.00
81800;DHT22;71195;52.528;5.704;2024-01-30T05:10:10;9.60;66.90
81800;DHT22;71195;52.528;5.704;2024-01-30T05:12:42;9.60;66.90
81800;DHT22;71195;52.528;5.704;2024-01-30T05:15:11;9.60;67.00
81800;DHT22;71195;52.528;5.704;2024-01-30T05:17:40;9.60;67.00
81800;DHT22;71195;52.528;5.704;2024-01-30T05:20:10;9.70;66.90
81800;DHT22;71195;52.528;5.704;2024-01-30T05:22:40;9.70;66.80
81800;DHT22;71195;52.528;5.704;2024-01-30T05:25:11;9.70;66.80
81800;DHT22;71195;52.528;5.704;2024-01-30T05:27:43;9.80;66.80
81800;DHT22;71195;52.528;5.704;2024-01-30T05:30:13;9.70;66.80
81800;DHT22;71195;52.528;5.704;2024-01-30T05:32:42;9.80;66.90
81800;DHT22;71195;52.528;5.704;2024-01-30T05:35:12;9.80;66.80
81800;DHT22;71195;52.528;5.704;2024-01-30T05:37:38;9.80;66.80
81800;DHT22;71195;52.528;5.704;2024-01-30T05:40:08;9.80;66.80
81800;DHT22;71195;52.528;5.704;2024-01-30T05:42:37;9.90;66.80
81800;DHT22;71195;52.528;5.704;2024-01-30T05:45:09;9.80;66.80
81800;DHT22;71195;52.528;5.704;2024-01-30T05:47:39;9.90;66.80
81800;DHT22;71195;52.528;5.704;2024-01-30T05:50:08;9.90;66.80
81800;DHT22;71195;52.528;5.704;2024-01-30T05:52:37;9.90;66.80
81800;DHT22;71195;52.528;5.704;2024-01-30T05:55:07;10.00;66.80
81800;DHT22;71195;52.528;5.704;2024-01-30T05:57:38;10.00;66.80
81800;DHT22;71195;52.528;5.704;2024-01-30T06:00:10;10.00;66.80
81800;DHT22;71195;52.528;5.704;2024-01-30T06:02:39;10.00;66.80
81800;DHT22;71195;52.528;5.704;2024-01-30T06:05:09;10.00;66.80
81800;DHT22;71195;52.528;5.704;2024-01-30T06:07:38;10.00;66.80
81800;DHT22;71195;52.528;5.704;2024-01-30T06:10:08;10.00;66.80
81800;DHT22;71195;52.528;5.704;2024-01-30T06:12:38;10.10;66.70
81800;DHT22;71195;52.528;5.704;2024-01-30T06:15:10;10.10;66.70
81800;DHT22;71195;52.528;5.704;2024-01-30T06:17:39;10.10;66.80
81800;DHT22;71195;52.528;5.704;2024-01-30T06:20:08;10.20;66.70
81800;DHT22;71195;52.528;5.704;2024-01-30T06:22:37;10.20;66.70
81800;DHT22;71195;52.528;5.704;2024-01-30T06:25:07;10.20;66.80
81800;DHT22;71195;52.528;5.704;2024-01-30T06:27:38;10.20;66.80
81800;DHT22;71195;52.528;5.704;2024-01-30T06:30:11;10.20;66.80
81800;DHT22;71195;52.528;5.704;2024-01-30T06:32:40;10.30;66.80
81800;DHT22;71195;52.528;5.704;2024-01-30T06:35:09;10.20;66.80
81800;DHT22;71195;52.528;5.704;2024-01-30T06:37:39;10.30;66.80
81800;DHT22;71195;52.528;5.704;2024-01-30T06:40:09;10.30;66.80
81800;DHT22;71195;52.528;5.704;2024-01-30T06:42:38;10.30;66.80
81800;DHT22;71195;52.528;5.704;2024-01-30T06:45:10;10.30;66.80
81800;DHT22;71195;52.528;5.704;2024-01-30T06:47:39;10.30;66.90
81800;DHT22;71195;52.528;5.704;2024-01-30T06:50:08;10.40;66.80
81800;DHT22;71195;52.528;5.704;2024-01-30T06:52:38;10.40;66.90
81800;DHT22;71195;52.528;5.704;2024-01-30T06:55:08;10.30;66.90
81800;DHT22;71195;52.528;5.704;2024-01-30T06:57:37;10.40;66.90
81800;DHT22;71195;52.528;5.704;2024-01-30T07:00:10;10.40;67.00
81800;DHT22;71195;52.528;5.704;2024-01-30T07:02:40;10.40;66.90
81800;DHT22;71195;52.528;5.704;2024-01-30T07:05:09;10.40;66.90
81800;DHT22;71195;52.528;5.704;2024-01-30T07:07:39;10.40;66.90
81800;DHT22;71195;52.528;5.704;2024-01-30T07:10:09;10.50;66.90
81800;DHT22;71195;52.528;5.704;2024-01-30T07:12:38;10.40;66.90
81800;DHT22;71195;52.528;5.704;2024-01-30T07:15:10;10.50;66.90
81800;DHT22;71195;52.528;5.704;2024-01-30T07:17:42;10.50;67.00
81800;DHT22;71195;52.528;5.704;2024-01-30T07:20:12;10.40;67.10
81800;DHT22;71195;52.528;5.704;2024-01-30T07:22:41;10.40;67.10
81800;DHT22;71195;52.528;5.704;2024-01-30T07:25:10;10.40;67.10
81800;DHT22;71195;52.528;5.704;2024-01-30T07:27:39;10.40;67.10
81800;DHT22;71195;52.528;5.704;2024-01-30T07:30:11;10.40;67.10
81800;DHT22;71195;52.528;5.704;2024-01-30T07:32:41;10.40;67.10
81800;DHT22;71195;52.528;5.704;2024-01-30T07:35:10;10.40;67.10
81800;DHT22;71195;52.528;5.704;2024-01-30T07:37:40;10.40;67.10
81800;DHT22;71195;52.528;5.704;2024-01-30T07:40:10;10.40;67.20
81800;DHT22;71195;52.528;5.704;2024-01-30T07:42:44;10.40;67.20
81800;DHT22;71195;52.528;5.704;2024-01-30T07:45:16;10.40;67.20
81800;DHT22;71195;52.528;5.704;2024-01-30T07:47:48;10.40;67.20
81800;DHT22;71195;52.528;5.704;2024-01-30T07:50:17;10.30;67.20
81800;DHT22;71195;52.528;5.704;2024-01-30T07:52:46;10.40;67.30
81800;DHT22;71195;52.528;5.704;2024-01-30T07:55:17;10.40;67.20
81800;DHT22;71195;52.528;5.704;2024-01-30T07:57:47;10.40;67.20
81800;DHT22;71195;52.528;5.704;2024-01-30T08:00:20;10.40;67.20
81800;DHT22;71195;52.528;5.704;2024-01-30T08:02:55;10.40;67.20
81800;DHT22;71195;52.528;5.704;2024-01-30T08:05:24;10.40;67.30
81800;DHT22;71195;52.528;5.704;2024-01-30T08:07:54;10.40;67.20
81800;DHT22;71195;52.528;5.704;2024-01-30T08:10:23;10.40;67.30
81800;DHT22;71195;52.528;5.704;2024-01-30T08:12:52;10.40;67.20
81800;DHT22;71195;52.528;5.704;2024-01-30T08:15:23;10.40;67.30
81800;DHT22;71195;52.528;5.704;2024-01-30T08:17:53;10.40;67.30
81800;DHT22;71195;52.528;5.704;2024-01-30T08:20:24;10.40;67.30
81800;DHT22;71195;52.528;5.704;2024-01-30T08:22:53;10.40;67.30
81800;DHT22;71195;52.528;5.704;2024-01-30T08:25:22;10.40;67.30
81800;DHT22;71195;52.528;5.704;2024-01-30T08:27:52;10.40;67.30
81800;DHT22;71195;52.528;5.704;2024-01-30T08:30:23;10.50;67.30
81800;DHT22;71195;52.528;5.704;2024-01-30T08:32:53;10.50;67.30
81800;DHT22;71195;52.528;5.704;2024-01-30T08:35:22;10.50;67.30
81800;DHT22;71195;52.528;5.704;2024-01-30T08:37:51;10.60;67.20
81800;DHT22;71195;52.528;5.704;2024-01-30T08:40:20;10.60;67.20
81800;DHT22;71195;52.528;5.704;2024-01-30T08:42:50;10.60;67.20
81800;DHT22;71195;52.528;5.704;2024-01-30T08:45:19;10.60;67.20
81800;DHT22;71195;52.528;5.704;2024-01-30T08:47:51;10.70;67.30
81800;DHT22;71195;52.528;5.704;2024-01-30T08:50:20;10.70;67.30
81800;DHT22;71195;52.528;5.704;2024-01-30T08:52:49;10.80;67.20
81800;DHT22;71195;52.528;5.704;2024-01-30T08:55:18;10.80;67.10
81800;DHT22;71195;52.528;5.704;2024-01-30T08:57:47;10.90;67.20
81800;DHT22;71195;52.528;5.704;2024-01-30T09:00:18;10.90;67.10
81800;DHT22;71195;52.528;5.704;2024-01-30T09:02:47;10.90;67.20
81800;DHT22;71195;52.528;5.704;2024-01-30T09:05:19;11.00;67.20
81800;DHT22;71195;52.528;5.704;2024-01-30T09:07:48;11.00;67.20
81800;DHT22;71195;52.528;5.704;2024-01-30T09:10:17;11.00;67.20
81800;DHT22;71195;52.528;5.704;2024-01-30T09:12:46;11.10;67.20
81800;DHT22;71195;52.528;5.704;2024-01-30T09:15:16;11.10;67.20
81800;DHT22;71195;52.528;5.704;2024-01-30T09:17:45;11.10;67.10
81800;DHT22;71195;52.528;5.704;2024-01-30T09:20:14;11.10;67.20
81800;DHT22;71195;52.528;5.704;2024-01-30T09:22:46;11.10;67.20
81800;DHT22;71195;52.528;5.704;2024-01-30T09:25:15;11.20;67.20
81800;DHT22;71195;52.528;5.704;2024-01-30T09:27:45;11.30;67.20
81800;DHT22;71195;52.528;5.704;2024-01-30T09:30:14;11.30;67.20
81800;DHT22;71195;52.528;5.704;2024-01-30T09:32:43;11.40;67.10
81800;DHT22;71195;52.528;5.704;2024-01-30T09:35:12;11.40;67.20
81800;DHT22;71195;52.528;5.704;2024-01-30T09:37:41;11.50;67.20
81800;DHT22;71195;52.528;5.704;2024-01-30T09:40:14;11.50;67.20
81800;DHT22;71195;52.528;5.704;2024-01-30T09:42:47;11.50;67.20
81800;DHT22;71195;52.528;5.704;2024-01-30T09:45:18;11.50;67.20
81800;DHT22;71195;52.528;5.704;2024-01-30T09:47:47;11.60;67.20
81800;DHT22;71195;52.528;5.704;2024-01-30T09:50:17;11.70;67.20
81800;DHT22;71195;52.528;5.704;2024-01-30T09:52:47;11.70;67.20
81800;DHT22;71195;52.528;5.704;2024-01-30T09:55:18;11.70;67.20
81800;DHT22;71195;52.528;5.704;2024-01-30T09:57:48;11.80;67.20
81800;DHT22;71195;52.528;5.704;2024-01-30T10:00:17;11.90;67.20
81800;DHT22;71195;52.528;5.704;2024-01-30T10:02:49;11.90;67.20
81800;DHT22;71195;52.528;5.704;2024-01-30T10:05:19;11.90;67.20
81800;DHT22;71195;52.528;5.704;2024-01-30T10:07:53;12.00;67.20
81800;DHT22;71195;52.528;5.704;2024-01-30T10:10:26;12.00;67.30
81800;DHT22;71195;52.528;5.704;2024-01-30T10:12:55;12.10;67.30
81800;DHT22;71195;52.528;5.704;2024-01-30T10:15:24;12.10;67.30
81800;DHT22;71195;52.528;5.704;2024-01-30T10:17:54;12.20;67.30
81800;DHT22;71195;52.528;5.704;2024-01-30T10:20:25;12.20;67.40
81800;DHT22;71195;52.528;5.704;2024-01-30T10:22:54;12.30;67.30
81800;DHT22;71195;52.528;5.704;2024-01-30T10:25:26;12.30;67.30
81800;DHT22;71195;52.528;5.704;2024-01-30T10:27:55;12.40;67.30
81800;DHT22;71195;52.528;5.704;2024-01-30T10:30:24;12.50;67.20
81800;DHT22;71195;52.528;5.704;2024-01-30T10:32:54;12.50;67.30
81800;DHT22;71195;52.528;5.704;2024-01-30T10:35:23;12.50;67.20
81800;DHT22;71195;52.528;5.704;2024-01-30T10:37:52;12.50;67.20
81800;DHT22;71195;52.528;5.704;2024-01-30T10:40:28;12.50;67.30
81800;DHT22;71195;52.528;5.704;2024-01-30T10:43:01;12.50;67.20
81800;DHT22;71195;52.528;5.704;2024-01-30T10:45:30;12.50;67.20
81800;DHT22;71195;52.528;5.704;2024-01-30T10:48:01;12.60;67.20
81800;DHT22;71195;52.528;5.704;2024-01-30T10:50:32;12.60;67.20
81800;DHT22;71195;52.528;5.704;2024-01-30T10:53:03;12.70;67.10
81800;DHT22;71195;52.528;5.704;2024-01-30T10:55:36;12.60;67.10
81800;DHT22;71195;52.528;5.704;2024-01-30T10:58:08;12.70;67.10
81800;DHT22;71195;52.528;5.704;2024-01-30T11:00:38;12.70;67.00
81800;DHT22;71195;52.528;5.704;2024-01-30T11:03:07;12.70;67.00
81800;DHT22;71195;52.528;5.704;2024-01-30T11:05:40;12.70;66.90
81800;DHT22;71195;52.528;5.704;2024-01-30T11:08:13;12.80;66.90
81800;DHT22;71195;52.528;5.704;2024-01-30T11:10:48;12.80;66.80
81800;DHT22;71195;52.528;5.704;2024-01-30T11:13:19;12.80;66.80
81800;DHT22;71195;52.528;5.704;2024-01-30T11:15:48;12.80;66.80
81800;DHT22;71195;52.528;5.704;2024-01-30T11:18:23;12.80;66.70
81800;DHT22;71195;52.528;5.704;2024-01-30T11:20:56;12.90;66.60
81800;DHT22;71195;52.528;5.704;2024-01-30T11:23:27;12.90;66.70
81800;DHT22;71195;52.528;5.704;2024-01-30T11:25:59;12.90;66.60
81800;DHT22;71195;52.528;5.704;2024-01-30T11:28:32;12.90;66.50
81800;DHT22;71195;52.528;5.704;2024-01-30T11:31:05;12.90;66.50
81800;DHT22;71195;52.528;5.704;2024-01-30T11:33:37;12.80;66.50
81800;DHT22;71195;52.528;5.704;2024-01-30T11:36:07;12.80;66.50
81800;DHT22;71195;52.528;5.704;2024-01-30T11:38:37;12.80;66.50
81800;DHT22;71195;52.528;5.704;2024-01-30T11:41:09;12.70;66.50
81800;DHT22;71195;52.528;5.704;2024-01-30T11:43:38;12.70;66.50
81800;DHT22;71195;52.528;5.704;2024-01-30T11:46:07;12.70;66.50
81800;DHT22;71195;52.528;5.704;2024-01-30T11:48:36;12.50;66.60
81800;DHT22;71195;52.528;5.704;2024-01-30T11:51:06;12.50;66.50
81800;DHT22;71195;52.528;5.704;2024-01-30T11:53:35;12.50;66.50
81800;DHT22;71195;52.528;5.704;2024-01-30T11:56:08;12.50;66.40
81800;DHT22;71195;52.528;5.704;2024-01-30T11:58:37;12.50;66.30
81800;DHT22;71195;52.528;5.704;2024-01-30T12:01:11;12.50;66.20
81800;DHT22;71195;52.528;5.704;2024-01-30T12:03:40;12.50;66.20
81800;DHT22;71195;52.528;5.704;2024-01-30T12:06:09;12.50;66.10
81800;DHT22;71195;52.528;5.704;2024-01-30T12:08:38;12.40;66.20
81800;DHT22;71195;52.528;5.704;2024-01-30T12:11:10;12.30;66.20
81800;DHT22;71195;52.528;5.704;2024-01-30T12:13:39;12.20;66.20
81800;DHT22;71195;52.528;5.704;2024-01-30T12:16:08;12.20;66.30
81800;DHT22;71195;52.528;5.704;2024-01-30T12:18:39;12.10;66.30
81800;DHT22;71195;52.528;5.704;2024-01-30T12:21:08;12.10;66.30
81800;DHT22;71195;52.528;5.704;2024-01-30T12:23:38;12.00;66.30
81800;DHT22;71195;52.528;5.704;2024-01-30T12:26:09;11.90;66.40
81800;DHT22;71195;52.528;5.704;2024-01-30T12:28:48;11.90;66.50
81800;DHT22;71195;52.528;5.704;2024-01-30T12:31:17;11.90;66.40
81800;DHT22;71195;52.528;5.704;2024-01-30T12:33:49;11.90;66.50
81800;DHT22;71195;52.528;5.704;2024-01-30T12:36:18;11.80;66.40
81800;DHT22;71195;52.528;5.704;2024-01-30T12:38:47;11.70;66.40
81800;DHT22;71195;52.528;5.704;2024-01-30T12:41:20;11.70;66.50
81800;DHT22;71195;52.528;5.704;2024-01-30T12:43:54;11.60;66.50
81800;DHT22;71195;52.528;5.704;2024-01-30T12:46:27;11.60;66.50
81800;DHT22;71195;52.528;5.704;2024-01-30T12:48:57;11.50;66.50
81800;DHT22;71195;52.528;5.704;2024-01-30T12:51:26;11.50;66.50
81800;DHT22;71195;52.528;5.704;2024-01-30T12:53:55;11.50;66.50
81800;DHT22;71195;52.528;5.704;2024-01-30T12:56:27;11.50;66.50
81800;DHT22;71195;52.528;5.704;2024-01-30T12:58:56;11.50;66.50
81800;DHT22;71195;52.528;5.704;2024-01-30T13:01:25;11.40;66.60
81800;DHT22;71195;52.528;5.704;2024-01-30T13:03:54;11.50;66.60
81800;DHT22;71195;52.528;5.704;2024-01-30T13:06:24;11.50;66.50
81800;DHT22;71195;52.528;5.704;2024-01-30T13:08:53;11.50;66.50
81800;DHT22;71195;52.528;5.704;2024-01-30T13:11:23;11.50;66.50
81800;DHT22;71195;52.528;5.704;2024-01-30T13:13:54;11.50;66.50
81800;DHT22;71195;52.528;5.704;2024-01-30T13:16:23;11.50;66.50
81800;DHT22;71195;52.528;5.704;2024-01-30T13:18:52;11.50;66.40
81800;DHT22;71195;52.528;5.704;2024-01-30T13:21:22;11.50;66.50
81800;DHT22;71195;52.528;5.704;2024-01-30T13:23:51;11.50;66.50
81800;DHT22;71195;52.528;5.704;2024-01-30T13:26:21;11.40;66.60
81800;DHT22;71195;52.528;5.704;2024-01-30T13:28:50;11.40;66.60
81800;DHT22;71195;52.528;5.704;2024-01-30T13:31:22;11.30;66.70
81800;DHT22;71195;52.528;5.704;2024-01-30T13:33:51;11.30;66.80
81800;DHT22;71195;52.528;5.704;2024-01-30T13:36:21;11.10;67.00
81800;DHT22;71195;52.528;5.704;2024-01-30T13:38:51;11.10;67.10
81800;DHT22;71195;52.528;5.704;2024-01-30T13:41:20;11.00;67.20
81800;DHT22;71195;52.528;5.704;2024-01-30T13:43:49;10.90;67.30
81800;DHT22;71195;52.528;5.704;2024-01-30T13:46:21;10.90;67.30
81800;DHT22;71195;52.528;5.704;2024-01-30T13:48:51;10.90;67.30
81800;DHT22;71195;52.528;5.704;2024-01-30T13:51:20;10.90;67.30
81800;DHT22;71195;52.528;5.704;2024-01-30T13:53:49;10.90;67.30
81800;DHT22;71195;52.528;5.704;2024-01-30T13:56:20;11.00;67.20
81800;DHT22;71195;52.528;5.704;2024-01-30T13:58:52;11.00;67.10
81800;DHT22;71195;52.528;5.704;2024-01-30T14:01:25;11.00;67.10
81800;DHT22;71195;52.528;5.704;2024-01-30T14:03:54;10.90;67.10
81800;DHT22;71195;52.528;5.704;2024-01-30T14:06:26;10.90;67.20
81800;DHT22;71195;52.528;5.704;2024-01-30T14:08:55;10.90;67.20
81800;DHT22;71195;52.528;5.704;2024-01-30T14:11:24;10.80;67.20
81800;DHT22;71195;52.528;5.704;2024-01-30T14:13:55;10.80;67.20
81800;DHT22;71195;52.528;5.704;2024-01-30T14:16:27;10.90;67.20
81800;DHT22;71195;52.528;5.704;2024-01-30T14:18:59;10.90;67.20
81800;DHT22;71195;52.528;5.704;2024-01-30T14:21:28;10.90;67.20
81800;DHT22;71195;52.528;5.704;2024-01-30T14:23:57;10.80;67.20
81800;DHT22;71195;52.528;5.704;2024-01-30T14:26:26;10.80;67.30
81800;DHT22;71195;52.528;5.704;2024-01-30T14:28:55;10.80;67.40
81800;DHT22;71195;52.528;5.704;2024-01-30T14:31:27;10.70;67.50
81800;DHT22;71195;52.528;5.704;2024-01-30T14:33:56;10.70;67.60
81800;DHT22;71195;52.528;5.704;2024-01-30T14:36:26;10.70;67.60
81800;DHT22;71195;52.528;5.704;2024-01-30T14:38:55;10.70;67.70
81800;DHT22;71195;52.528;5.704;2024-01-30T14:41:24;10.70;67.70
81800;DHT22;71195;52.528;5.704;2024-01-30T14:43:54;10.70;67.80
81800;DHT22;71195;52.528;5.704;2024-01-30T14:46:23;10.70;67.80
81800;DHT22;71195;52.528;5.704;2024-01-30T14:48:55;10.60;67.90
81800;DHT22;71195;52.528;5.704;2024-01-30T14:51:25;10.60;67.90
81800;DHT22;71195;52.528;5.704;2024-01-30T14:53:55;10.60;68.00
81800;DHT22;71195;52.528;5.704;2024-01-30T14:56:25;10.60;68.00
81800;DHT22;71195;52.528;5.704;2024-01-30T14:58:54;10.60;68.00
81800;DHT22;71195;52.528;5.704;2024-01-30T15:01:23;10.60;68.10
81800;DHT22;71195;52.528;5.704;2024-01-30T15:03:55;10.60;68.20
81800;DHT22;71195;52.528;5.704;2024-01-30T15:06:24;10.60;68.20
81800;DHT22;71195;52.528;5.704;2024-01-30T15:08:54;10.60;68.20
81800;DHT22;71195;52.528;5.704;2024-01-30T15:11:23;10.50;68.20
81800;DHT22;71195;52.528;5.704;2024-01-30T15:13:52;10.50;68.30
81800;DHT22;71195;52.528;5.704;2024-01-30T15:16:21;10.50;68.30
81800;DHT22;71195;52.528;5.704;2024-01-30T15:18:50;10.50;68.40
81800;DHT22;71195;52.528;5.704;2024-01-30T15:21:22;10.50;68.40
81800;DHT22;71195;52.528;5.704;2024-01-30T15:23:51;10.50;68.40
81800;DHT22;71195;52.528;5.704;2024-01-30T15:26:20;10.50;68.40
81800;DHT22;71195;52.528;5.704;2024-01-30T15:28:50;10.50;68.40
81800;DHT22;71195;52.528;5.704;2024-01-30T15:31:19;10.50;68.50
81800;DHT22;71195;52.528;5.704;2024-01-30T15:33:48;10.50;68.40
81800;DHT22;71195;52.528;5.704;2024-01-30T15:36:18;10.50;68.40
81800;DHT22;71195;52.528;5.704;2024-01-30T15:38:49;10.50;68.50
81800;DHT22;71195;52.528;5.704;2024-01-30T15:41:18;10.40;68.60
81800;DHT22;71195;52.528;5.704;2024-01-30T15:43:48;10.50;68.60
81800;DHT22;71195;52.528;5.704;2024-01-30T15:46:17;10.40;68.60
81800;DHT22;71195;52.528;5.704;2024-01-30T15:48:47;10.50;68.60
81800;DHT22;71195;52.528;5.704;2024-01-30T15:51:17;10.40;68.60
81800;DHT22;71195;52.528;5.704;2024-01-30T15:53:46;10.40;68.70